sensor_id;sensor_type;location;lat;lon;timestamp;P1;durP1;ratioP1;P2;durP2;ratioP2
18304;SDS011;9278;52.156;21.048;2022-11-25T00:01:27;81.67;;;24.20;;
18304;SDS011;9278;52.156;21.048;2022-11-25T00:03:58;80.23;;;23.23;;
18304;SDS011;9278;52.156;21.048;2022-11-25T00:06:27;90.97;;;24.57;;
18304;SDS011;9278;52.156;21.048;2022-11-25T00:08:57;84.00;;;24.20;;
18304;SDS011;9278;52.156;21.048;2022-11-25T00:11:26;93.03;;;24.23;;
18304;SDS011;9278;52.156;21.048;2022-11-25T00:13:54;81.13;;;23.23;;
18304;SDS011;9278;52.156;21.048;2022-11-25T00:16:23;83.67;;;24.53;;
18304;SDS011;9278;52.156;21.048;2022-11-25T00:18:53;78.77;;;23.60;;
18304;SDS011;9278;52.156;21.048;2022-11-25T00:21:24;91.80;;;24.37;;
18304;SDS011;9278;52.156;21.048;2022-11-25T00:23:54;89.70;;;24.70;;
18304;SDS011;9278;52.156;21.048;2022-11-25T00:26:23;95.53;;;24.33;;
18304;SDS011;9278;52.156;21.048;2022-11-25T00:28:53;98.60;;;25.80;;
18304;SDS011;9278;52.156;21.048;2022-11-25T00:31:23;93.13;;;25.80;;
18304;SDS011;9278;52.156;21.048;2022-11-25T00:33:53;94.93;;;25.40;;
18304;SDS011;9278;52.156;21.048;2022-11-25T00:36:22;93.03;;;24.70;;
18304;SDS011;9278;52.156;21.048;2022-11-25T00:38:52;89.80;;;25.73;;
18304;SDS011;9278;52.156;21.048;2022-11-25T00:41:21;94.80;;;25.90;;
18304;SDS011;9278;52.156;21.048;2022-11-25T00:44:08;89.00;;;25.17;;
18304;SDS011;9278;52.156;21.048;2022-11-25T00:47:08;92.83;;;25.07;;
18304;SDS011;9278;52.156;21.048;2022-11-25T00:49:38;91.67;;;24.20;;
18304;SDS011;9278;52.156;21.048;2022-11-25T00:52:09;92.90;;;25.77;;
18304;SDS011;9278;52.156;21.048;2022-11-25T00:54:40;95.43;;;26.23;;
18304;SDS011;9278;52.156;21.048;2022-11-25T00:57:09;88.20;;;25.80;;
18304;SDS011;9278;52.156;21.048;2022-11-25T00:59:38;93.27;;;24.47;;
18304;SDS011;9278;52.156;21.048;2022-11-25T01:02:06;84.80;;;25.53;;
18304;SDS011;9278;52.156;21.048;2022-11-25T01:04:36;89.47;;;24.17;;
18304;SDS011;9278;52.156;21.048;2022-11-25T01:07:04;91.07;;;24.23;;
18304;SDS011;9278;52.156;21.048;2022-11-25T01:09:35;91.40;;;24.93;;
18304;SDS011;9278;52.156;21.048;2022-11-25T01:12:04;96.87;;;25.87;;
18304;SDS011;9278;52.156;21.048;2022-11-25T01:14:32;94.03;;;25.03;;
18304;SDS011;9278;52.156;21.048;2022-11-25T01:17:02;91.07;;;24.90;;
18304;SDS011;9278;52.156;21.048;2022-11-25T01:19:31;87.07;;;24.53;;
18304;SDS011;9278;52.156;21.048;2022-11-25T01:21:59;81.77;;;24.10;;
18304;SDS011;9278;52.156;21.048;2022-11-25T01:24:27;88.67;;;25.77;;
18304;SDS011;9278;52.156;21.048;2022-11-25T01:26:56;95.70;;;26.57;;
18304;SDS011;9278;52.156;21.048;2022-11-25T01:29:24;94.50;;;25.90;;
18304;SDS011;9278;52.156;21.048;2022-11-25T01:31:54;100.53;;;26.63;;
18304;SDS011;9278;52.156;21.048;2022-11-25T01:34:23;93.30;;;26.10;;
18304;SDS011;9278;52.156;21.048;2022-11-25T01:36:55;99.17;;;27.77;;
18304;SDS011;9278;52.156;21.048;2022-11-25T01:39:24;99.03;;;27.40;;
18304;SDS011;9278;52.156;21.048;2022-11-25T01:42:00;110.83;;;27.50;;
18304;SDS011;9278;52.156;21.048;2022-11-25T01:44:28;113.07;;;27.13;;
18304;SDS011;9278;52.156;21.048;2022-11-25T01:47:00;102.43;;;26.13;;
18304;SDS011;9278;52.156;21.048;2022-11-25T01:49:33;100.27;;;25.87;;
18304;SDS011;9278;52.156;21.048;2022-11-25T01:52:06;92.30;;;26.07;;
18304;SDS011;9278;52.156;21.048;2022-11-25T01:54:41;95.13;;;25.23;;
18304;SDS011;9278;52.156;21.048;2022-11-25T01:57:18;91.67;;;25.13;;
18304;SDS011;9278;52.156;21.048;2022-11-25T01:59:52;89.30;;;23.53;;
18304;SDS011;9278;52.156;21.048;2022-11-25T02:02:24;96.00;;;24.73;;
18304;SDS011;9278;52.156;21.048;2022-11-25T02:04:52;94.90;;;24.67;;
18304;SDS011;9278;52.156;21.048;2022-11-25T02:07:23;100.53;;;25.43;;
18304;SDS011;9278;52.156;21.048;2022-11-25T02:09:55;105.60;;;26.10;;
18304;SDS011;9278;52.156;21.048;2022-11-25T02:12:25;103.10;;;27.40;;
18304;SDS011;9278;52.156;21.048;2022-11-25T02:14:56;103.93;;;26.40;;
18304;SDS011;9278;52.156;21.048;2022-11-25T02:17:25;103.77;;;26.87;;
18304;SDS011;9278;52.156;21.048;2022-11-25T02:19:58;113.00;;;26.97;;
18304;SDS011;9278;52.156;21.048;2022-11-25T02:22:33;104.03;;;25.90;;
18304;SDS011;9278;52.156;21.048;2022-11-25T02:25:15;98.33;;;25.77;;
18304;SDS011;9278;52.156;21.048;2022-11-25T02:27:45;99.33;;;24.57;;
18304;SDS011;9278;52.156;21.048;2022-11-25T02:30:17;102.73;;;26.40;;
18304;SDS011;9278;52.156;21.048;2022-11-25T02:32:47;119.57;;;27.87;;
18304;SDS011;9278;52.156;21.048;2022-11-25T02:35:25;115.37;;;28.77;;
18304;SDS011;9278;52.156;21.048;2022-11-25T02:37:58;105.53;;;25.77;;
18304;SDS011;9278;52.156;21.048;2022-11-25T02:40:32;112.37;;;26.63;;
18304;SDS011;9278;52.156;21.048;2022-11-25T02:43:04;105.53;;;26.30;;
18304;SDS011;9278;52.156;21.048;2022-11-25T02:45:38;103.53;;;24.77;;
18304;SDS011;9278;52.156;21.048;2022-11-25T02:48:18;99.03;;;25.27;;
18304;SDS011;9278;52.156;21.048;2022-11-25T02:51:07;105.33;;;26.13;;
18304;SDS011;9278;52.156;21.048;2022-11-25T02:53:37;97.37;;;24.70;;
18304;SDS011;9278;52.156;21.048;2022-11-25T02:56:07;104.53;;;24.70;;
18304;SDS011;9278;52.156;21.048;2022-11-25T02:58:38;103.17;;;27.27;;
18304;SDS011;9278;52.156;21.048;2022-11-25T03:01:07;102.03;;;25.47;;
18304;SDS011;9278;52.156;21.048;2022-11-25T03:03:35;99.77;;;25.43;;
18304;SDS011;9278;52.156;21.048;2022-11-25T03:06:05;101.70;;;25.40;;
18304;SDS011;9278;52.156;21.048;2022-11-25T03:08:34;113.47;;;27.50;;
18304;SDS011;9278;52.156;21.048;2022-11-25T03:11:07;110.73;;;26.77;;
18304;SDS011;9278;52.156;21.048;2022-11-25T03:13:36;122.43;;;27.03;;
18304;SDS011;9278;52.156;21.048;2022-11-25T03:16:05;111.50;;;26.63;;
18304;SDS011;9278;52.156;21.048;2022-11-25T03:18:33;113.30;;;27.83;;
18304;SDS011;9278;52.156;21.048;2022-11-25T03:21:02;115.33;;;28.37;;
18304;SDS011;9278;52.156;21.048;2022-11-25T03:23:30;108.87;;;26.73;;
18304;SDS011;9278;52.156;21.048;2022-11-25T03:26:03;102.77;;;24.80;;
18304;SDS011;9278;52.156;21.048;2022-11-25T03:28:33;101.83;;;24.77;;
18304;SDS011;9278;52.156;21.048;2022-11-25T03:31:01;91.50;;;24.67;;
18304;SDS011;9278;52.156;21.048;2022-11-25T03:33:30;97.67;;;24.80;;
18304;SDS011;9278;52.156;21.048;2022-11-25T03:35:58;94.07;;;24.60;;
18304;SDS011;9278;52.156;21.048;2022-11-25T03:38:26;93.23;;;24.83;;
18304;SDS011;9278;52.156;21.048;2022-11-25T03:40:54;94.90;;;25.70;;
18304;SDS011;9278;52.156;21.048;2022-11-25T03:43:23;95.07;;;24.43;;
18304;SDS011;9278;52.156;21.048;2022-11-25T03:45:52;99.50;;;25.87;;
18304;SDS011;9278;52.156;21.048;2022-11-25T03:48:20;94.60;;;24.53;;
18304;SDS011;9278;52.156;21.048;2022-11-25T03:50:48;101.33;;;24.63;;
18304;SDS011;9278;52.156;21.048;2022-11-25T03:53:16;91.93;;;24.90;;
18304;SDS011;9278;52.156;21.048;2022-11-25T03:55:46;78.50;;;23.10;;
18304;SDS011;9278;52.156;21.048;2022-11-25T03:58:17;83.20;;;24.70;;
18304;SDS011;9278;52.156;21.048;2022-11-25T04:00:47;81.30;;;24.23;;
18304;SDS011;9278;52.156;21.048;2022-11-25T04:03:17;85.40;;;24.43;;
18304;SDS011;9278;52.156;21.048;2022-11-25T04:05:45;81.03;;;24.27;;
18304;SDS011;9278;52.156;21.048;2022-11-25T04:08:13;82.70;;;25.20;;
18304;SDS011;9278;52.156;21.048;2022-11-25T04:10:43;98.60;;;25.93;;
18304;SDS011;9278;52.156;21.048;2022-11-25T04:13:12;95.47;;;26.73;;
18304;SDS011;9278;52.156;21.048;2022-11-25T04:15:43;89.17;;;26.13;;
18304;SDS011;9278;52.156;21.048;2022-11-25T04:18:13;101.00;;;26.47;;
18304;SDS011;9278;52.156;21.048;2022-11-25T04:20:43;107.53;;;27.57;;
18304;SDS011;9278;52.156;21.048;2022-11-25T04:23:11;105.87;;;28.33;;
18304;SDS011;9278;52.156;21.048;2022-11-25T04:25:48;90.97;;;27.40;;
18304;SDS011;9278;52.156;21.048;2022-11-25T04:28:43;99.63;;;27.07;;
18304;SDS011;9278;52.156;21.048;2022-11-25T04:31:12;102.60;;;28.83;;
18304;SDS011;9278;52.156;21.048;2022-11-25T04:33:41;95.57;;;27.23;;
18304;SDS011;9278;52.156;21.048;2022-11-25T04:36:19;95.53;;;27.93;;
18304;SDS011;9278;52.156;21.048;2022-11-25T04:38:47;93.13;;;27.53;;
18304;SDS011;9278;52.156;21.048;2022-11-25T04:41:16;94.30;;;26.47;;
18304;SDS011;9278;52.156;21.048;2022-11-25T04:43:44;92.47;;;27.30;;
18304;SDS011;9278;52.156;21.048;2022-11-25T04:46:14;84.83;;;25.57;;
18304;SDS011;9278;52.156;21.048;2022-11-25T04:48:48;88.57;;;26.00;;
18304;SDS011;9278;52.156;21.048;2022-11-25T04:51:19;90.50;;;26.27;;
18304;SDS011;9278;52.156;21.048;2022-11-25T04:53:51;92.43;;;26.60;;
18304;SDS011;9278;52.156;21.048;2022-11-25T04:56:21;92.30;;;25.87;;
18304;SDS011;9278;52.156;21.048;2022-11-25T04:58:51;93.27;;;27.50;;
18304;SDS011;9278;52.156;21.048;2022-11-25T05:01:44;85.97;;;25.97;;
18304;SDS011;9278;52.156;21.048;2022-11-25T05:04:22;91.27;;;26.63;;
18304;SDS011;9278;52.156;21.048;2022-11-25T05:06:52;79.77;;;26.00;;
18304;SDS011;9278;52.156;21.048;2022-11-25T05:09:22;91.10;;;25.83;;
18304;SDS011;9278;52.156;21.048;2022-11-25T05:12:06;86.17;;;25.73;;
18304;SDS011;9278;52.156;21.048;2022-11-25T05:14:35;88.03;;;27.37;;
18304;SDS011;9278;52.156;21.048;2022-11-25T05:17:04;83.10;;;24.40;;
18304;SDS011;9278;52.156;21.048;2022-11-25T05:19:34;82.60;;;24.83;;
18304;SDS011;9278;52.156;21.048;2022-11-25T05:22:04;91.43;;;26.80;;
18304;SDS011;9278;52.156;21.048;2022-11-25T05:24:32;80.73;;;24.80;;
18304;SDS011;9278;52.156;21.048;2022-11-25T05:27:01;87.27;;;25.47;;
18304;SDS011;9278;52.156;21.048;2022-11-25T05:29:30;89.63;;;25.40;;
18304;SDS011;9278;52.156;21.048;2022-11-25T05:31:58;73.13;;;23.10;;
18304;SDS011;9278;52.156;21.048;2022-11-25T05:34:27;85.40;;;25.30;;
18304;SDS011;9278;52.156;21.048;2022-11-25T05:36:57;83.77;;;23.50;;
18304;SDS011;9278;52.156;21.048;2022-11-25T05:39:28;82.57;;;22.43;;
18304;SDS011;9278;52.156;21.048;2022-11-25T05:42:23;85.27;;;22.67;;
18304;SDS011;9278;52.156;21.048;2022-11-25T05:44:51;74.60;;;21.77;;
18304;SDS011;9278;52.156;21.048;2022-11-25T05:47:20;75.50;;;21.93;;
18304;SDS011;9278;52.156;21.048;2022-11-25T05:49:49;75.93;;;21.93;;
18304;SDS011;9278;52.156;21.048;2022-11-25T05:52:17;72.30;;;22.40;;
18304;SDS011;9278;52.156;21.048;2022-11-25T05:54:56;81.33;;;22.40;;
18304;SDS011;9278;52.156;21.048;2022-11-25T05:57:25;79.83;;;21.30;;
18304;SDS011;9278;52.156;21.048;2022-11-25T06:00:13;78.03;;;21.87;;
18304;SDS011;9278;52.156;21.048;2022-11-25T06:02:48;70.40;;;20.87;;
18304;SDS011;9278;52.156;21.048;2022-11-25T06:05:22;76.40;;;21.53;;
18304;SDS011;9278;52.156;21.048;2022-11-25T06:07:50;77.00;;;20.80;;
18304;SDS011;9278;52.156;21.048;2022-11-25T06:10:22;72.57;;;21.10;;
18304;SDS011;9278;52.156;21.048;2022-11-25T06:12:51;71.43;;;21.20;;
18304;SDS011;9278;52.156;21.048;2022-11-25T06:15:19;77.50;;;22.17;;
18304;SDS011;9278;52.156;21.048;2022-11-25T06:17:50;87.80;;;23.33;;
18304;SDS011;9278;52.156;21.048;2022-11-25T06:20:22;78.50;;;22.87;;
18304;SDS011;9278;52.156;21.048;2022-11-25T06:22:50;76.67;;;21.87;;
18304;SDS011;9278;52.156;21.048;2022-11-25T06:25:26;76.93;;;22.40;;
18304;SDS011;9278;52.156;21.048;2022-11-25T06:27:54;80.00;;;22.47;;
18304;SDS011;9278;52.156;21.048;2022-11-25T06:30:39;80.93;;;21.27;;
18304;SDS011;9278;52.156;21.048;2022-11-25T06:33:28;67.97;;;20.10;;
18304;SDS011;9278;52.156;21.048;2022-11-25T06:36:01;76.13;;;21.47;;
18304;SDS011;9278;52.156;21.048;2022-11-25T06:38:30;69.87;;;20.20;;
18304;SDS011;9278;52.156;21.048;2022-11-25T06:41:00;73.23;;;19.37;;
18304;SDS011;9278;52.156;21.048;2022-11-25T06:43:29;74.37;;;20.53;;
18304;SDS011;9278;52.156;21.048;2022-11-25T06:46:00;71.40;;;20.00;;
18304;SDS011;9278;52.156;21.048;2022-11-25T06:48:29;75.70;;;19.87;;
18304;SDS011;9278;52.156;21.048;2022-11-25T06:50:58;72.10;;;20.40;;
18304;SDS011;9278;52.156;21.048;2022-11-25T06:53:27;68.60;;;21.47;;
18304;SDS011;9278;52.156;21.048;2022-11-25T06:56:08;78.57;;;21.53;;
18304;SDS011;9278;52.156;21.048;2022-11-25T06:58:39;81.87;;;23.13;;
18304;SDS011;9278;52.156;21.048;2022-11-25T07:01:10;82.30;;;21.63;;
18304;SDS011;9278;52.156;21.048;2022-11-25T07:03:40;75.37;;;21.33;;
18304;SDS011;9278;52.156;21.048;2022-11-25T07:06:10;81.97;;;22.63;;
18304;SDS011;9278;52.156;21.048;2022-11-25T07:08:38;80.80;;;22.47;;
18304;SDS011;9278;52.156;21.048;2022-11-25T07:11:09;74.07;;;20.10;;
18304;SDS011;9278;52.156;21.048;2022-11-25T07:13:40;79.20;;;22.20;;
18304;SDS011;9278;52.156;21.048;2022-11-25T07:16:09;71.53;;;20.93;;
18304;SDS011;9278;52.156;21.048;2022-11-25T07:18:40;88.97;;;22.30;;
18304;SDS011;9278;52.156;21.048;2022-11-25T07:21:09;78.90;;;23.73;;
18304;SDS011;9278;52.156;21.048;2022-11-25T07:23:39;86.40;;;22.73;;
18304;SDS011;9278;52.156;21.048;2022-11-25T07:26:10;73.30;;;21.37;;
18304;SDS011;9278;52.156;21.048;2022-11-25T07:28:40;77.40;;;20.73;;
18304;SDS011;9278;52.156;21.048;2022-11-25T07:31:09;79.23;;;21.90;;
18304;SDS011;9278;52.156;21.048;2022-11-25T07:33:54;81.97;;;22.93;;
18304;SDS011;9278;52.156;21.048;2022-11-25T07:36:23;83.27;;;22.07;;
18304;SDS011;9278;52.156;21.048;2022-11-25T07:38:52;77.60;;;22.37;;
18304;SDS011;9278;52.156;21.048;2022-11-25T07:41:22;83.07;;;22.97;;
18304;SDS011;9278;52.156;21.048;2022-11-25T07:43:52;76.67;;;23.37;;
18304;SDS011;9278;52.156;21.048;2022-11-25T07:46:23;82.43;;;22.77;;
18304;SDS011;9278;52.156;21.048;2022-11-25T07:48:53;79.30;;;21.77;;
18304;SDS011;9278;52.156;21.048;2022-11-25T07:51:23;70.63;;;21.70;;
18304;SDS011;9278;52.156;21.048;2022-11-25T07:53:53;78.03;;;21.80;;
18304;SDS011;9278;52.156;21.048;2022-11-25T07:56:23;79.83;;;22.40;;
18304;SDS011;9278;52.156;21.048;2022-11-25T07:58:52;78.20;;;22.80;;
18304;SDS011;9278;52.156;21.048;2022-11-25T08:01:20;78.63;;;22.70;;
18304;SDS011;9278;52.156;21.048;2022-11-25T08:03:49;81.27;;;22.60;;
18304;SDS011;9278;52.156;21.048;2022-11-25T08:06:18;73.53;;;22.37;;
18304;SDS011;9278;52.156;21.048;2022-11-25T08:08:48;78.37;;;21.97;;
18304;SDS011;9278;52.156;21.048;2022-11-25T08:11:19;85.37;;;22.93;;
18304;SDS011;9278;52.156;21.048;2022-11-25T08:13:50;86.63;;;23.43;;
18304;SDS011;9278;52.156;21.048;2022-11-25T08:16:19;75.83;;;22.00;;
18304;SDS011;9278;52.156;21.048;2022-11-25T08:18:49;82.17;;;23.13;;
18304;SDS011;9278;52.156;21.048;2022-11-25T08:21:17;80.50;;;22.20;;
18304;SDS011;9278;52.156;21.048;2022-11-25T08:23:46;77.10;;;22.20;;
18304;SDS011;9278;52.156;21.048;2022-11-25T08:26:15;73.53;;;21.70;;
18304;SDS011;9278;52.156;21.048;2022-11-25T08:28:45;83.97;;;23.43;;
18304;SDS011;9278;52.156;21.048;2022-11-25T08:31:16;82.27;;;21.87;;
18304;SDS011;9278;52.156;21.048;2022-11-25T08:33:47;95.30;;;24.53;;
18304;SDS011;9278;52.156;21.048;2022-11-25T08:36:16;82.97;;;24.30;;
18304;SDS011;9278;52.156;21.048;2022-11-25T08:38:45;94.47;;;24.23;;
18304;SDS011;9278;52.156;21.048;2022-11-25T08:41:15;87.60;;;24.40;;
18304;SDS011;9278;52.156;21.048;2022-11-25T08:43:44;88.87;;;23.90;;
18304;SDS011;9278;52.156;21.048;2022-11-25T08:46:14;88.07;;;25.13;;
18304;SDS011;9278;52.156;21.048;2022-11-25T08:48:44;94.33;;;26.67;;
18304;SDS011;9278;52.156;21.048;2022-11-25T08:51:13;93.10;;;24.40;;
18304;SDS011;9278;52.156;21.048;2022-11-25T08:53:44;94.13;;;25.00;;
18304;SDS011;9278;52.156;21.048;2022-11-25T08:56:13;96.73;;;24.80;;
18304;SDS011;9278;52.156;21.048;2022-11-25T08:58:44;88.63;;;26.03;;
18304;SDS011;9278;52.156;21.048;2022-11-25T09:01:15;92.93;;;26.07;;
18304;SDS011;9278;52.156;21.048;2022-11-25T09:03:45;86.67;;;24.10;;
18304;SDS011;9278;52.156;21.048;2022-11-25T09:06:15;85.83;;;24.40;;
18304;SDS011;9278;52.156;21.048;2022-11-25T09:08:44;85.13;;;24.30;;
18304;SDS011;9278;52.156;21.048;2022-11-25T09:11:13;94.27;;;25.50;;
18304;SDS011;9278;52.156;21.048;2022-11-25T09:13:42;85.67;;;25.90;;
18304;SDS011;9278;52.156;21.048;2022-11-25T09:16:10;85.17;;;25.57;;
18304;SDS011;9278;52.156;21.048;2022-11-25T09:18:39;84.83;;;25.57;;
18304;SDS011;9278;52.156;21.048;2022-11-25T09:21:08;80.80;;;23.80;;
18304;SDS011;9278;52.156;21.048;2022-11-25T09:23:38;91.87;;;26.03;;
18304;SDS011;9278;52.156;21.048;2022-11-25T09:26:07;99.20;;;26.60;;
18304;SDS011;9278;52.156;21.048;2022-11-25T09:28:42;89.00;;;25.23;;
18304;SDS011;9278;52.156;21.048;2022-11-25T09:31:11;92.73;;;26.67;;
18304;SDS011;9278;52.156;21.048;2022-11-25T09:33:41;82.63;;;25.27;;
18304;SDS011;9278;52.156;21.048;2022-11-25T09:36:10;81.83;;;24.70;;
18304;SDS011;9278;52.156;21.048;2022-11-25T09:38:39;88.97;;;26.00;;
18304;SDS011;9278;52.156;21.048;2022-11-25T09:41:14;85.77;;;24.77;;
18304;SDS011;9278;52.156;21.048;2022-11-25T09:44:06;98.30;;;25.60;;
18304;SDS011;9278;52.156;21.048;2022-11-25T09:47:01;89.10;;;25.23;;
18304;SDS011;9278;52.156;21.048;2022-11-25T09:49:39;85.23;;;24.40;;
18304;SDS011;9278;52.156;21.048;2022-11-25T09:52:18;86.73;;;25.47;;
18304;SDS011;9278;52.156;21.048;2022-11-25T09:54:58;89.17;;;27.23;;
18304;SDS011;9278;52.156;21.048;2022-11-25T09:57:45;81.90;;;24.73;;
18304;SDS011;9278;52.156;21.048;2022-11-25T10:00:26;85.37;;;25.87;;
18304;SDS011;9278;52.156;21.048;2022-11-25T10:03:00;90.17;;;26.97;;
18304;SDS011;9278;52.156;21.048;2022-11-25T10:05:35;88.10;;;25.40;;
18304;SDS011;9278;52.156;21.048;2022-11-25T10:08:09;89.23;;;25.87;;
18304;SDS011;9278;52.156;21.048;2022-11-25T10:10:40;95.30;;;26.47;;
18304;SDS011;9278;52.156;21.048;2022-11-25T10:13:13;79.83;;;25.73;;
18304;SDS011;9278;52.156;21.048;2022-11-25T10:15:45;94.20;;;25.93;;
18304;SDS011;9278;52.156;21.048;2022-11-25T10:18:18;91.60;;;26.57;;
18304;SDS011;9278;52.156;21.048;2022-11-25T10:20:51;85.60;;;25.60;;
18304;SDS011;9278;52.156;21.048;2022-11-25T10:23:22;91.07;;;26.73;;
18304;SDS011;9278;52.156;21.048;2022-11-25T10:25:54;95.97;;;25.67;;
18304;SDS011;9278;52.156;21.048;2022-11-25T10:28:28;88.87;;;25.43;;
18304;SDS011;9278;52.156;21.048;2022-11-25T10:30:59;95.13;;;27.13;;
18304;SDS011;9278;52.156;21.048;2022-11-25T10:33:32;85.00;;;26.10;;
18304;SDS011;9278;52.156;21.048;2022-11-25T10:36:06;83.40;;;25.90;;
18304;SDS011;9278;52.156;21.048;2022-11-25T10:38:42;77.70;;;24.73;;
18304;SDS011;9278;52.156;21.048;2022-11-25T10:41:18;81.87;;;24.40;;
18304;SDS011;9278;52.156;21.048;2022-11-25T10:43:49;81.30;;;23.90;;
18304;SDS011;9278;52.156;21.048;2022-11-25T10:46:19;79.33;;;24.53;;
18304;SDS011;9278;52.156;21.048;2022-11-25T10:49:19;76.50;;;24.43;;
18304;SDS011;9278;52.156;21.048;2022-11-25T10:51:57;80.27;;;23.83;;
18304;SDS011;9278;52.156;21.048;2022-11-25T10:54:25;73.90;;;24.07;;
18304;SDS011;9278;52.156;21.048;2022-11-25T10:56:56;73.07;;;23.80;;
18304;SDS011;9278;52.156;21.048;2022-11-25T10:59:26;74.53;;;24.53;;
18304;SDS011;9278;52.156;21.048;2022-11-25T11:02:13;78.80;;;24.07;;
18304;SDS011;9278;52.156;21.048;2022-11-25T11:04:49;69.73;;;23.33;;
18304;SDS011;9278;52.156;21.048;2022-11-25T11:07:21;72.40;;;24.13;;
18304;SDS011;9278;52.156;21.048;2022-11-25T11:09:50;72.90;;;24.23;;
18304;SDS011;9278;52.156;21.048;2022-11-25T11:12:19;70.32;;;23.65;;
18304;SDS011;9278;52.156;21.048;2022-11-25T11:14:49;78.03;;;25.07;;
18304;SDS011;9278;52.156;21.048;2022-11-25T11:20:13;63.57;;;22.60;;
18304;SDS011;9278;52.156;21.048;2022-11-25T11:22:46;70.72;;;22.95;;
18304;SDS011;9278;52.156;21.048;2022-11-25T11:25:27;76.47;;;24.03;;
18304;SDS011;9278;52.156;21.048;2022-11-25T11:27:57;72.80;;;25.23;;
18304;SDS011;9278;52.156;21.048;2022-11-25T11:30:26;73.05;;;24.58;;
18304;SDS011;9278;52.156;21.048;2022-11-25T11:32:57;72.83;;;24.57;;
18304;SDS011;9278;52.156;21.048;2022-11-25T11:35:30;71.93;;;24.63;;
18304;SDS011;9278;52.156;21.048;2022-11-25T11:38:19;82.53;;;25.33;;
18304;SDS011;9278;52.156;21.048;2022-11-25T11:41:04;77.63;;;25.30;;
18304;SDS011;9278;52.156;21.048;2022-11-25T11:43:48;82.23;;;25.53;;
18304;SDS011;9278;52.156;21.048;2022-11-25T11:46:26;84.50;;;26.70;;
18304;SDS011;9278;52.156;21.048;2022-11-25T11:52:07;83.40;;;26.70;;
18304;SDS011;9278;52.156;21.048;2022-11-25T11:54:44;84.73;;;26.63;;
18304;SDS011;9278;52.156;21.048;2022-11-25T11:57:19;88.47;;;27.40;;
18304;SDS011;9278;52.156;21.048;2022-11-25T11:59:56;80.93;;;26.47;;
18304;SDS011;9278;52.156;21.048;2022-11-25T12:02:43;88.33;;;27.53;;
18304;SDS011;9278;52.156;21.048;2022-11-25T12:05:21;94.53;;;28.37;;
18304;SDS011;9278;52.156;21.048;2022-11-25T12:07:53;87.70;;;27.93;;
18304;SDS011;9278;52.156;21.048;2022-11-25T12:10:35;87.50;;;27.50;;
18304;SDS011;9278;52.156;21.048;2022-11-25T12:13:12;93.90;;;28.07;;
18304;SDS011;9278;52.156;21.048;2022-11-25T12:15:45;93.13;;;28.17;;
18304;SDS011;9278;52.156;21.048;2022-11-25T12:18:22;88.60;;;28.50;;
18304;SDS011;9278;52.156;21.048;2022-11-25T12:21:00;89.87;;;27.73;;
18304;SDS011;9278;52.156;21.048;2022-11-25T12:23:34;97.17;;;29.77;;
18304;SDS011;9278;52.156;21.048;2022-11-25T12:26:11;91.03;;;28.07;;
18304;SDS011;9278;52.156;21.048;2022-11-25T12:28:46;94.00;;;28.83;;
18304;SDS011;9278;52.156;21.048;2022-11-25T12:31:21;97.80;;;30.60;;
18304;SDS011;9278;52.156;21.048;2022-11-25T12:33:55;96.77;;;29.23;;
18304;SDS011;9278;52.156;21.048;2022-11-25T12:36:30;99.40;;;28.83;;
18304;SDS011;9278;52.156;21.048;2022-11-25T12:39:01;98.07;;;27.67;;
18304;SDS011;9278;52.156;21.048;2022-11-25T12:41:36;94.20;;;28.20;;
18304;SDS011;9278;52.156;21.048;2022-11-25T12:44:11;102.50;;;29.23;;
18304;SDS011;9278;52.156;21.048;2022-11-25T12:46:44;101.60;;;30.37;;
18304;SDS011;9278;52.156;21.048;2022-11-25T12:49:16;89.93;;;28.37;;
18304;SDS011;9278;52.156;21.048;2022-11-25T12:52:06;99.60;;;30.10;;
18304;SDS011;9278;52.156;21.048;2022-11-25T12:54:46;101.13;;;29.63;;
18304;SDS011;9278;52.156;21.048;2022-11-25T12:57:31;99.23;;;29.13;;
18304;SDS011;9278;52.156;21.048;2022-11-25T13:00:23;96.97;;;29.07;;
18304;SDS011;9278;52.156;21.048;2022-11-25T13:06:21;106.03;;;30.17;;
18304;SDS011;9278;52.156;21.048;2022-11-25T13:09:10;103.67;;;29.30;;
18304;SDS011;9278;52.156;21.048;2022-11-25T13:15:00;97.27;;;29.47;;
18304;SDS011;9278;52.156;21.048;2022-11-25T13:17:46;89.40;;;27.83;;
18304;SDS011;9278;52.156;21.048;2022-11-25T13:20:39;100.23;;;29.83;;
18304;SDS011;9278;52.156;21.048;2022-11-25T13:23:21;103.63;;;30.53;;
18304;SDS011;9278;52.156;21.048;2022-11-25T13:32:38;100.07;;;30.83;;
18304;SDS011;9278;52.156;21.048;2022-11-25T13:41:19;98.40;;;30.20;;
18304;SDS011;9278;52.156;21.048;2022-11-25T13:43:51;103.57;;;30.73;;
18304;SDS011;9278;52.156;21.048;2022-11-25T13:46:31;101.80;;;31.20;;
18304;SDS011;9278;52.156;21.048;2022-11-25T13:49:05;105.17;;;31.10;;
18304;SDS011;9278;52.156;21.048;2022-11-25T13:51:51;106.87;;;30.83;;
18304;SDS011;9278;52.156;21.048;2022-11-25T13:54:23;104.80;;;31.70;;
18304;SDS011;9278;52.156;21.048;2022-11-25T13:56:58;101.47;;;30.43;;
18304;SDS011;9278;52.156;21.048;2022-11-25T13:59:47;93.67;;;29.73;;
18304;SDS011;9278;52.156;21.048;2022-11-25T14:08:17;104.53;;;32.13;;
18304;SDS011;9278;52.156;21.048;2022-11-25T14:10:51;108.00;;;32.07;;
18304;SDS011;9278;52.156;21.048;2022-11-25T14:13:32;110.43;;;32.30;;
18304;SDS011;9278;52.156;21.048;2022-11-25T14:16:23;110.80;;;32.40;;
18304;SDS011;9278;52.156;21.048;2022-11-25T14:19:18;110.43;;;33.87;;
18304;SDS011;9278;52.156;21.048;2022-11-25T14:22:25;97.57;;;31.03;;
18304;SDS011;9278;52.156;21.048;2022-11-25T14:25:14;105.30;;;31.10;;
18304;SDS011;9278;52.156;21.048;2022-11-25T14:27:49;103.35;;;32.75;;
18304;SDS011;9278;52.156;21.048;2022-11-25T14:30:29;101.00;;;30.55;;
18304;SDS011;9278;52.156;21.048;2022-11-25T14:32:59;104.30;;;30.75;;
18304;SDS011;9278;52.156;21.048;2022-11-25T14:35:31;106.87;;;33.77;;
18304;SDS011;9278;52.156;21.048;2022-11-25T14:38:11;105.83;;;32.13;;
18304;SDS011;9278;52.156;21.048;2022-11-25T14:40:48;109.63;;;33.20;;
18304;SDS011;9278;52.156;21.048;2022-11-25T14:43:21;102.07;;;31.30;;
18304;SDS011;9278;52.156;21.048;2022-11-25T14:48:39;119.03;;;34.27;;
18304;SDS011;9278;52.156;21.048;2022-11-25T14:51:07;109.63;;;34.65;;
18304;SDS011;9278;52.156;21.048;2022-11-25T14:53:40;103.40;;;33.80;;
18304;SDS011;9278;52.156;21.048;2022-11-25T14:56:16;111.07;;;33.00;;
18304;SDS011;9278;52.156;21.048;2022-11-25T14:58:50;108.50;;;32.10;;
18304;SDS011;9278;52.156;21.048;2022-11-25T15:01:21;106.70;;;33.70;;
18304;SDS011;9278;52.156;21.048;2022-11-25T15:03:59;114.47;;;33.90;;
18304;SDS011;9278;52.156;21.048;2022-11-25T15:06:31;116.97;;;33.10;;
18304;SDS011;9278;52.156;21.048;2022-11-25T15:09:01;114.47;;;32.73;;
18304;SDS011;9278;52.156;21.048;2022-11-25T15:11:32;118.60;;;34.60;;
18304;SDS011;9278;52.156;21.048;2022-11-25T15:14:02;106.93;;;32.53;;
18304;SDS011;9278;52.156;21.048;2022-11-25T15:16:33;110.77;;;34.80;;
18304;SDS011;9278;52.156;21.048;2022-11-25T15:19:05;115.13;;;34.67;;
18304;SDS011;9278;52.156;21.048;2022-11-25T15:21:41;121.63;;;35.73;;
18304;SDS011;9278;52.156;21.048;2022-11-25T15:24:31;120.63;;;34.47;;
18304;SDS011;9278;52.156;21.048;2022-11-25T15:27:12;112.03;;;34.30;;